Time;durP1;ratioP1;P1;durP2;ratioP2;P2;SDS_P1;SDS_P2;PMS_P1;PMS_P2;Temp;Humidity;BMP_temperature;BMP_pressure;BME280_temperature;BME280_humidity;BME280_pressure;Samples;Min_cycle;Max_cycle;Signal;HPM_P1;HPM_P2
2022/05/27 00:01:24;;;;;;;4.13;3.57;;;15.30;86.70;;;;;;5056765;28;20199;-59
2022/05/27 00:03:50;;;;;;;4.17;3.43;;;15.30;86.90;;;;;;5073220;28;20208;-59
2022/05/27 00:06:16;;;;;;;5.80;3.83;;;15.30;86.90;;;;;;5073127;28;20181;-59
2022/05/27 00:08:42;;;;;;;7.50;4.00;;;15.30;87.00;;;;;;5056155;28;20219;-59
2022/05/27 00:11:08;;;;;;;6.63;3.93;;;15.30;87.00;;;;;;5073033;28;20272;-59
2022/05/27 00:13:34;;;;;;;5.00;3.80;;;15.30;87.00;;;;;;5073148;28;20189;-59
2022/05/27 00:16:00;;;;;;;6.40;3.40;;;15.30;87.20;;;;;;5056447;28;20216;-59
2022/05/27 00:18:26;;;;;;;3.83;3.37;;;15.30;87.20;;;;;;5055865;28;20284;-59
2022/05/27 00:20:52;;;;;;;4.20;3.80;;;15.20;87.20;;;;;;5072847;28;20197;-59
2022/05/27 00:23:19;;;;;;;10.23;4.23;;;15.20;87.10;;;;;;5072491;28;20205;-59
2022/05/27 00:25:45;;;;;;;6.57;3.87;;;15.20;87.30;;;;;;5072859;28;20353;-59
2022/05/27 00:28:11;;;;;;;8.33;4.30;;;15.20;87.30;;;;;;5072401;28;20269;-59
2022/05/27 00:30:37;;;;;;;7.67;4.10;;;15.20;87.40;;;;;;5056605;28;20272;-59
2022/05/27 00:33:04;;;;;;;4.60;3.93;;;15.10;87.50;;;;;;5056401;28;20273;-59
2022/05/27 00:35:30;;;;;;;4.30;3.90;;;15.20;87.60;;;;;;5056292;28;20205;-59
2022/05/27 00:37:56;;;;;;;7.20;4.57;;;15.20;87.70;;;;;;5056173;28;20276;-59
2022/05/27 00:40:23;;;;;;;4.67;4.10;;;15.10;87.70;;;;;;5055999;28;20198;-59
2022/05/27 00:42:49;;;;;;;7.43;4.20;;;15.20;87.70;;;;;;5070724;28;20237;-59
2022/05/27 00:45:24;;;;;;;4.87;4.27;;;15.10;87.60;;;;;;5055996;28;20201;-59
2022/05/27 00:47:56;;;;;;;6.23;3.87;;;15.10;87.60;;;;;;5071846;28;20182;-59
2022/05/27 00:50:27;;;;;;;5.03;3.90;;;15.10;87.60;;;;;;5073140;28;20194;-59
2022/05/27 00:52:54;;;;;;;6.90;3.80;;;15.00;87.60;;;;;;5071718;28;20218;-59
2022/05/27 00:55:27;;;;;;;6.80;4.00;;;15.00;87.70;;;;;;5072604;28;20193;-59
2022/05/27 00:58:12;;;;;;;9.57;4.33;;;15.00;87.90;;;;;;5071774;28;20194;-59
2022/05/27 01:00:39;;;;;;;6.00;3.83;;;15.00;87.80;;;;;;5072205;28;20255;-59
2022/05/27 01:03:07;;;;;;;5.77;3.40;;;15.00;87.90;;;;;;5072272;28;20256;-59
2022/05/27 01:05:33;;;;;;;5.67;4.63;;;15.00;87.90;;;;;;5072394;28;20170;-59
2022/05/27 01:08:07;;;;;;;5.33;3.70;;;15.00;87.90;;;;;;5042201;28;20182;-59
2022/05/27 01:10:58;;;;;;;9.53;4.57;;;15.00;87.90;;;;;;5075999;28;20257;-59
2022/05/27 01:13:42;;;;;;;6.77;4.40;;;15.00;87.90;;;;;;5035286;28;20244;-59
2022/05/27 01:16:17;;;;;;;4.87;3.77;;;15.00;87.90;;;;;;5075679;28;20259;-59
2022/05/27 01:21:54;;;;;;;6.43;4.47;;;15.00;87.90;;;;;;5076508;28;20247;-60
2022/05/27 01:24:46;;;;;;;9.13;4.10;;;14.90;87.90;;;;;;5075687;28;20201;-57
2022/05/27 01:27:33;;;;;;;4.17;3.80;;;14.90;87.80;;;;;;5074986;28;20194;-58
2022/05/27 01:30:33;;;;;;;4.50;4.10;;;14.80;87.60;;;;;;5075941;28;20186;-58
2022/05/27 01:33:01;;;;;;;7.50;4.00;;;14.80;87.70;;;;;;5075476;28;20193;-59
2022/05/27 01:35:49;;;;;;;5.07;4.60;;;14.80;87.80;;;;;;5075453;28;20179;-58
2022/05/27 01:38:21;;;;;;;6.17;4.07;;;14.80;87.80;;;;;;5075545;28;20205;-59
2022/05/27 01:41:05;;;;;;;5.70;3.50;;;14.80;87.80;;;;;;5092160;28;20174;-60
2022/05/27 01:43:37;;;;;;;5.13;3.90;;;14.80;87.90;;;;;;5075360;28;20237;-57
2022/05/27 01:46:15;;;;;;;4.03;3.67;;;14.80;88.00;;;;;;5074803;28;20190;-58
2022/05/27 01:49:05;;;;;;;10.53;4.00;;;14.70;88.00;;;;;;5075989;28;20177;-58
2022/05/27 01:51:40;;;;;;;8.07;4.60;;;14.70;88.00;;;;;;5074996;28;20185;-57
2022/05/27 01:54:16;;;;;;;7.73;3.87;;;14.70;88.00;;;;;;5075148;28;20178;-58
2022/05/27 01:56:49;;;;;;;8.27;4.23;;;14.70;88.00;;;;;;5091595;28;20201;-58
2022/05/27 01:59:33;;;;;;;4.37;3.67;;;14.70;88.20;;;;;;5074959;28;20191;-58
2022/05/27 02:02:13;;;;;;;4.50;3.67;;;14.70;88.20;;;;;;5075162;28;20186;-58
2022/05/27 02:04:45;;;;;;;4.17;3.77;;;14.70;88.10;;;;;;5074406;28;20213;-58
2022/05/27 02:07:16;;;;;;;7.73;4.03;;;14.70;88.10;;;;;;5073824;28;20197;-58
2022/05/27 02:09:46;;;;;;;5.50;3.63;;;14.70;88.00;;;;;;5074772;28;20190;-59
2022/05/27 02:12:22;;;;;;;9.10;4.53;;;14.60;87.90;;;;;;5091579;28;20194;-59
2022/05/27 02:14:55;;;;;;;7.40;4.00;;;14.60;87.90;;;;;;5074996;28;20174;-59
2022/05/27 02:17:32;;;;;;;5.03;4.30;;;14.60;88.10;;;;;;5074792;28;20246;-59
2022/05/27 02:20:14;;;;;;;6.20;3.90;;;14.50;88.00;;;;;;5091708;28;20174;-59
2022/05/27 02:22:54;;;;;;;5.93;4.37;;;14.50;88.10;;;;;;5074946;28;20245;-59
2022/05/27 02:25:30;;;;;;;4.90;4.40;;;14.50;88.10;;;;;;5074447;28;20217;-59
2022/05/27 02:27:58;;;;;;;4.30;3.90;;;14.60;88.10;;;;;;5074268;28;20195;-59
2022/05/27 02:30:31;;;;;;;6.93;4.10;;;14.50;87.90;;;;;;5075537;28;20162;-59
2022/05/27 02:35:50;;;;;;;4.10;3.70;;;14.50;87.80;;;;;;5075441;28;20177;-59
2022/05/27 02:38:16;;;;;;;5.30;3.43;;;14.50;87.90;;;;;;5054404;28;20194;-58
2022/05/27 02:40:54;;;;;;;3.97;3.67;;;14.40;88.00;;;;;;5037836;28;20189;-58
2022/05/27 02:43:33;;;;;;;11.73;4.30;;;14.40;88.10;;;;;;5053895;28;20273;-59
2022/05/27 02:46:36;;;;;;;6.63;4.33;;;14.30;88.00;;;;;;5072898;28;20189;-59
2022/05/27 02:49:07;;;;;;;7.40;3.50;;;14.40;88.10;;;;;;5073918;28;20211;-59
2022/05/27 02:52:00;;;;;;;4.67;3.97;;;14.30;88.20;;;;;;5074517;28;20176;-58
2022/05/27 02:54:47;;;;;;;6.43;3.57;;;14.30;88.30;;;;;;5073742;28;20174;-58
2022/05/27 02:57:24;;;;;;;4.73;4.27;;;14.30;88.40;;;;;;5073662;28;20170;-58
2022/05/27 02:59:52;;;;;;;3.90;3.60;;;14.30;88.40;;;;;;5073290;28;20228;-58
2022/05/27 03:02:18;;;;;;;5.37;4.73;;;14.30;88.40;;;;;;5073856;28;20265;-58
2022/05/27 03:04:48;;;;;;;5.53;4.10;;;14.30;88.50;;;;;;5057201;28;20210;-58
2022/05/27 03:07:16;;;;;;;4.37;3.97;;;14.30;88.70;;;;;;5073809;28;20186;-59
2022/05/27 03:10:04;;;;;;;4.30;4.00;;;14.30;88.70;;;;;;5072445;28;20281;-59
2022/05/27 03:12:50;;;;;;;9.00;4.20;;;14.40;88.90;;;;;;5073661;28;20172;-59
2022/05/27 03:15:25;;;;;;;5.17;4.30;;;14.30;88.90;;;;;;5072820;28;20189;-59
2022/05/27 03:18:02;;;;;;;4.93;3.80;;;14.40;88.90;;;;;;5073127;28;20192;-59
2022/05/27 03:20:52;;;;;;;4.30;3.90;;;14.40;88.90;;;;;;5073570;28;20194;-59
2022/05/27 03:23:51;;;;;;;5.67;3.90;;;14.40;88.80;;;;;;5073721;28;20201;-59
2022/05/27 03:26:54;;;;;;;6.33;3.93;;;14.50;88.70;;;;;;5074595;28;20245;-59
2022/05/27 03:29:30;;;;;;;5.70;3.87;;;14.50;88.60;;;;;;5065421;28;20204;-59
2022/05/27 03:32:09;;;;;;;4.50;4.10;;;14.50;88.60;;;;;;5073180;28;20208;-58
2022/05/27 03:35:21;;;;;;;4.37;3.87;;;14.60;88.60;;;;;;5073480;28;20186;-59
2022/05/27 03:38:01;;;;;;;6.33;4.37;;;14.50;88.50;;;;;;5067061;28;20219;-59
2022/05/27 03:40:41;;;;;;;4.60;4.13;;;14.50;88.50;;;;;;5068546;28;20196;-59
2022/05/27 03:43:09;;;;;;;6.00;3.67;;;14.60;88.50;;;;;;5073067;28;20243;-59
2022/05/27 03:45:56;;;;;;;4.27;3.87;;;14.60;88.50;;;;;;5073481;28;20188;-58
2022/05/27 03:48:23;;;;;;;6.10;3.63;;;14.60;88.50;;;;;;5073763;28;20186;-58
2022/05/27 03:50:53;;;;;;;4.10;3.70;;;14.60;88.50;;;;;;5073328;28;20284;-59
2022/05/27 03:53:19;;;;;;;4.20;3.90;;;14.60;88.40;;;;;;5073024;28;20174;-59
2022/05/27 03:55:44;;;;;;;4.73;4.33;;;14.50;88.50;;;;;;5056454;28;20224;-59
2022/05/27 03:58:17;;;;;;;4.70;4.30;;;14.50;88.40;;;;;;5055082;28;20193;-59
2022/05/27 04:00:44;;;;;;;4.73;4.33;;;14.60;88.50;;;;;;5072941;28;20198;-59
2022/05/27 04:03:11;;;;;;;5.30;4.50;;;14.60;88.40;;;;;;5072974;28;20216;-59
2022/05/27 04:05:38;;;;;;;5.33;4.10;;;14.50;88.40;;;;;;5056178;28;20230;-59
2022/05/27 04:08:04;;;;;;;5.57;4.03;;;14.60;88.40;;;;;;5073214;28;20196;-59
2022/05/27 04:10:30;;;;;;;5.07;3.80;;;14.60;88.40;;;;;;5038868;28;20189;-60
2022/05/27 04:12:56;;;;;;;5.70;4.00;;;14.60;88.40;;;;;;5073176;28;20198;-60
2022/05/27 04:15:21;;;;;;;6.23;3.83;;;14.60;88.40;;;;;;5056174;28;20190;-60
2022/05/27 04:17:48;;;;;;;3.80;3.40;;;14.60;88.40;;;;;;5056085;28;20252;-60
2022/05/27 04:20:16;;;;;;;4.47;4.07;;;14.60;88.40;;;;;;5073027;28;20170;-60
2022/05/27 04:22:42;;;;;;;4.10;3.80;;;14.60;88.40;;;;;;5072447;28;20223;-61
2022/05/27 04:25:09;;;;;;;4.17;3.77;;;14.60;88.30;;;;;;5073210;28;20204;-60
2022/05/27 04:27:36;;;;;;;5.73;3.87;;;14.70;88.30;;;;;;5054240;28;20190;-60
2022/05/27 04:30:04;;;;;;;5.80;3.67;;;14.70;88.30;;;;;;5071077;28;20332;-60
2022/05/27 04:32:29;;;;;;;4.57;3.43;;;14.70;88.40;;;;;;5056259;28;20189;-60
2022/05/27 04:34:55;;;;;;;7.93;3.97;;;14.80;88.40;;;;;;5070639;28;20185;-60
2022/05/27 04:37:23;;;;;;;5.27;3.93;;;14.80;88.40;;;;;;5050312;28;20255;-61
2022/05/27 04:39:49;;;;;;;4.70;3.90;;;14.80;88.30;;;;;;5068664;28;20186;-61
2022/05/27 04:42:15;;;;;;;4.47;3.23;;;14.90;88.30;;;;;;5073204;28;20253;-61
2022/05/27 04:44:41;;;;;;;5.27;3.80;;;14.90;88.10;;;;;;5063163;28;20217;-61
2022/05/27 04:47:07;;;;;;;4.10;3.77;;;14.90;88.00;;;;;;5057983;28;20182;-60
2022/05/27 04:52:24;;;;;;;4.80;3.53;;;15.00;87.80;;;;;;5070276;28;20181;-60
2022/05/27 04:54:50;;;;;;;6.63;4.20;;;15.00;87.60;;;;;;5070775;28;20268;-60
2022/05/27 04:57:20;;;;;;;6.27;3.87;;;15.00;87.60;;;;;;5066741;28;20189;-61
2022/05/27 04:59:49;;;;;;;7.60;3.83;;;15.10;87.60;;;;;;5071181;28;20651;-60
2022/05/27 05:02:23;;;;;;;6.37;3.87;;;15.00;87.60;;;;;;5067773;28;20182;-60
2022/05/27 05:04:50;;;;;;;4.47;3.60;;;15.00;87.60;;;;;;5067758;28;20189;-60
2022/05/27 05:07:19;;;;;;;6.17;3.93;;;15.10;87.70;;;;;;5075608;28;20213;-61
2022/05/27 05:09:44;;;;;;;5.63;4.00;;;15.10;87.70;;;;;;5076079;28;20178;-61
2022/05/27 05:12:11;;;;;;;5.30;3.90;;;15.10;87.80;;;;;;5042882;28;20175;-61
2022/05/27 05:14:37;;;;;;;5.47;3.57;;;15.10;87.90;;;;;;5042199;28;20190;-63
2022/05/27 05:17:03;;;;;;;4.47;3.77;;;15.10;87.80;;;;;;5060074;28;20264;-62
2022/05/27 05:19:29;;;;;;;3.77;3.47;;;15.20;87.70;;;;;;5055868;28;20187;-62
2022/05/27 05:21:55;;;;;;;4.87;3.57;;;15.20;87.80;;;;;;5075030;28;20197;-62
2022/05/27 05:24:22;;;;;;;6.63;4.53;;;15.20;87.80;;;;;;5055418;28;20309;-62
2022/05/27 05:26:48;;;;;;;5.70;3.40;;;15.30;87.60;;;;;;5048245;28;20182;-62
2022/05/27 05:29:14;;;;;;;5.03;3.67;;;15.30;87.60;;;;;;5054927;28;20182;-62
2022/05/27 05:31:39;;;;;;;4.00;3.67;;;15.30;87.60;;;;;;5050985;28;20191;-63
2022/05/27 05:34:05;;;;;;;3.83;3.43;;;15.30;87.30;;;;;;5055725;28;20202;-63
2022/05/27 05:36:31;;;;;;;5.17;3.47;;;15.40;87.40;;;;;;5059224;28;20208;-63
2022/05/27 05:38:57;;;;;;;3.63;3.33;;;15.40;87.40;;;;;;5069921;28;20186;-64
2022/05/27 05:41:34;;;;;;;4.77;3.57;;;15.50;87.30;;;;;;5074451;28;20230;-64
2022/05/27 05:44:00;;;;;;;3.67;3.37;;;15.50;87.30;;;;;;5054181;28;20218;-64
2022/05/27 05:46:26;;;;;;;7.40;3.53;;;15.60;87.20;;;;;;5060745;28;20212;-63
2022/05/27 05:48:53;;;;;;;4.27;3.27;;;15.60;87.20;;;;;;5055984;28;20196;-61
2022/05/27 05:51:19;;;;;;;4.37;3.50;;;15.70;87.10;;;;;;5049216;28;20186;-63
2022/05/27 05:53:45;;;;;;;4.20;3.57;;;15.70;87.10;;;;;;5074907;28;20185;-62
2022/05/27 05:56:11;;;;;;;3.97;3.57;;;15.70;87.00;;;;;;5057473;28;20194;-63
2022/05/27 05:58:37;;;;;;;4.00;3.60;;;15.80;87.00;;;;;;5074618;28;20198;-62
2022/05/27 06:01:03;;;;;;;5.57;4.43;;;15.80;87.10;;;;;;5073356;28;20251;-62
2022/05/27 06:03:29;;;;;;;4.33;3.63;;;15.80;86.90;;;;;;5054405;28;20297;-62
2022/05/27 06:05:55;;;;;;;5.53;3.67;;;15.90;86.70;;;;;;5068510;28;20183;-62
2022/05/27 06:08:21;;;;;;;4.53;3.30;;;16.00;86.40;;;;;;5074395;28;20196;-63
2022/05/27 06:10:48;;;;;;;4.00;3.70;;;16.00;86.50;;;;;;5057684;28;20185;-62
2022/05/27 06:13:14;;;;;;;6.33;3.30;;;16.10;86.40;;;;;;5074203;28;20190;-63
2022/05/27 06:15:40;;;;;;;3.53;3.23;;;16.20;86.40;;;;;;5057800;28;20249;-62
2022/05/27 06:18:07;;;;;;;5.83;3.83;;;16.20;86.40;;;;;;5057823;28;20198;-63
2022/05/27 06:20:35;;;;;;;3.47;3.17;;;16.20;85.50;;;;;;5064560;28;20222;-63
2022/05/27 06:23:04;;;;;;;7.47;4.40;;;16.30;85.50;;;;;;5058474;28;20214;-63
2022/05/27 06:25:29;;;;;;;3.50;3.20;;;16.30;85.50;;;;;;5054355;28;20193;-63
2022/05/27 06:34:23;;;;;;;3.90;3.30;;;16.30;85.10;;;;;;5059362;28;20190;-63
2022/05/27 06:36:09;;;;;;;3.07;2.87;;;16.60;84.40;;;;;;5072048;28;20189;-62
2022/05/27 06:38:37;;;;;;;3.90;3.10;;;16.60;83.40;;;;;;5045967;28;20400;-62
2022/05/27 06:41:03;;;;;;;3.43;3.13;;;16.70;83.70;;;;;;5072900;28;20193;-63
2022/05/27 06:43:28;;;;;;;4.30;3.33;;;16.80;83.50;;;;;;5074241;28;20233;-63
2022/05/27 06:45:54;;;;;;;4.37;3.43;;;16.90;82.70;;;;;;5057420;28;20342;-64
2022/05/27 06:48:20;;;;;;;4.27;2.93;;;17.00;82.40;;;;;;5057767;28;20223;-64
2022/05/27 06:50:46;;;;;;;3.03;2.80;;;17.00;82.00;;;;;;5054456;28;20237;-60
2022/05/27 06:53:11;;;;;;;3.43;2.83;;;17.10;81.80;;;;;;5031836;28;20198;-62
2022/05/27 06:55:37;;;;;;;3.33;2.43;;;17.10;81.30;;;;;;5060454;28;20193;-63
2022/05/27 06:58:03;;;;;;;3.60;2.83;;;17.20;80.00;;;;;;5054215;28;20342;-62
2022/05/27 07:00:29;;;;;;;3.20;2.97;;;17.30;79.90;;;;;;5060304;28;20241;-62
2022/05/27 07:02:55;;;;;;;3.53;2.80;;;17.30;79.30;;;;;;5045186;28;20193;-62
2022/05/27 07:05:22;;;;;;;3.23;2.93;;;17.40;79.20;;;;;;5056633;28;20224;-63
2022/05/27 07:07:49;;;;;;;3.83;2.50;;;17.50;79.60;;;;;;5057035;28;20202;-62
2022/05/27 07:10:15;;;;;;;3.07;2.77;;;17.50;80.20;;;;;;5064669;28;20210;-63
2022/05/27 07:12:40;;;;;;;3.10;2.80;;;17.60;80.10;;;;;;5040528;28;20194;-62
2022/05/27 07:15:07;;;;;;;4.33;2.50;;;17.70;79.80;;;;;;5059442;28;20191;-62
2022/05/27 07:17:32;;;;;;;3.17;2.87;;;17.70;80.20;;;;;;5053588;28;20171;-63
2022/05/27 07:19:58;;;;;;;2.97;2.63;;;17.70;77.20;;;;;;5054090;28;20198;-63
2022/05/27 07:22:25;;;;;;;2.50;2.30;;;17.80;75.40;;;;;;5053557;28;20175;-62
2022/05/27 07:24:51;;;;;;;2.63;2.43;;;17.80;75.50;;;;;;5055917;28;20218;-62
2022/05/27 07:27:17;;;;;;;2.87;2.60;;;17.90;75.60;;;;;;5056785;28;20189;-62
2022/05/27 07:29:42;;;;;;;2.40;2.20;;;18.00;76.00;;;;;;5053722;28;20221;-62
2022/05/27 07:32:08;;;;;;;2.73;2.53;;;18.00;76.30;;;;;;5058767;28;20275;-62
2022/05/27 07:34:34;;;;;;;3.33;2.63;;;18.10;76.50;;;;;;5052283;28;20201;-62
2022/05/27 07:37:00;;;;;;;3.37;2.73;;;18.10;75.50;;;;;;5053264;28;20197;-62
2022/05/27 07:39:25;;;;;;;3.10;2.80;;;18.20;75.40;;;;;;5054762;28;20193;-62
2022/05/27 07:41:51;;;;;;;3.57;2.57;;;18.30;74.50;;;;;;5054776;28;20297;-62
2022/05/27 07:44:17;;;;;;;3.80;2.50;;;18.40;72.50;;;;;;5056119;28;20221;-63
2022/05/27 07:46:42;;;;;;;2.43;2.23;;;18.50;71.30;;;;;;5071461;28;20189;-63
2022/05/27 07:49:08;;;;;;;2.50;2.30;;;18.60;72.10;;;;;;5053867;28;20197;-60
2022/05/27 07:51:34;;;;;;;2.97;2.63;;;18.70;72.00;;;;;;5054363;28;20197;-62
2022/05/27 07:54:00;;;;;;;3.80;2.47;;;18.70;72.40;;;;;;5054826;28;20271;-62
2022/05/27 07:56:25;;;;;;;4.20;2.60;;;18.80;72.10;;;;;;5038395;28;20284;-63
2022/05/27 07:58:51;;;;;;;3.30;2.87;;;18.90;71.30;;;;;;5066385;28;20191;-63
2022/05/27 08:01:17;;;;;;;2.50;2.30;;;19.10;68.60;;;;;;5054063;28;20296;-63
2022/05/27 08:03:43;;;;;;;3.30;3.10;;;19.20;68.60;;;;;;5036674;28;20194;-63
2022/05/27 08:06:09;;;;;;;3.17;2.87;;;19.30;68.90;;;;;;5070156;28;20177;-61
2022/05/27 08:08:36;;;;;;;3.47;2.63;;;19.30;69.00;;;;;;5071052;28;20181;-61
2022/05/27 08:11:02;;;;;;;4.57;3.10;;;19.30;68.40;;;;;;5036788;28;20200;-62
2022/05/27 08:13:28;;;;;;;3.40;3.07;;;19.30;68.70;;;;;;5054586;28;20194;-62
2022/05/27 08:15:55;;;;;;;2.80;2.30;;;19.50;67.30;;;;;;5038339;28;20213;-62
2022/05/27 08:18:21;;;;;;;2.90;2.70;;;19.60;67.80;;;;;;5074354;28;20201;-63
2022/05/27 08:20:47;;;;;;;4.40;2.80;;;19.70;67.30;;;;;;5069513;28;20221;-62
2022/05/27 08:23:13;;;;;;;3.00;2.70;;;19.70;65.20;;;;;;5038371;28;20297;-61
2022/05/27 08:25:39;;;;;;;5.03;2.77;;;19.80;65.30;;;;;;5038461;28;20190;-62
2022/05/27 08:28:05;;;;;;;3.17;2.37;;;19.90;64.80;;;;;;5055840;28;20178;-62
2022/05/27 08:30:33;;;;;;;3.03;2.30;;;20.10;65.10;;;;;;5042209;28;20233;-62
2022/05/27 08:33:00;;;;;;;3.27;2.13;;;20.10;67.10;;;;;;5076013;28;20195;-62
2022/05/27 08:38:17;;;;;;;3.23;2.57;;;20.20;68.30;;;;;;5055325;28;20181;-61
2022/05/27 08:40:59;;;;;;;3.07;2.80;;;20.20;68.70;;;;;;5069689;28;20232;-61
2022/05/27 08:43:52;;;;;;;2.53;2.33;;;20.20;66.80;;;;;;5074719;28;20266;-62
2022/05/27 08:46:37;;;;;;;4.17;2.50;;;20.30;65.60;;;;;;5058386;28;20194;-62
2022/05/27 08:49:08;;;;;;;4.40;2.70;;;20.40;64.50;;;;;;5071431;28;20183;-62
2022/05/27 08:51:49;;;;;;;5.50;2.57;;;20.40;66.60;;;;;;5072949;28;20189;-62
2022/05/27 08:54:29;;;;;;;2.80;2.60;;;20.40;68.10;;;;;;5075651;28;20177;-62
2022/05/27 08:59:57;;;;;;;2.50;2.30;;;20.60;66.90;;;;;;5075519;28;20211;-62
2022/05/27 09:02:38;;;;;;;3.00;2.63;;;20.70;67.30;;;;;;5075011;28;20188;-62
2022/05/27 09:05:15;;;;;;;3.53;2.07;;;20.70;65.30;;;;;;5074476;28;20209;-61
2022/05/27 09:07:55;;;;;;;3.83;2.20;;;20.80;67.30;;;;;;5074856;28;20251;-61
2022/05/27 09:10:33;;;;;;;2.47;2.27;;;20.80;67.30;;;;;;5073327;28;20246;-61
2022/05/27 09:13:11;;;;;;;3.23;2.80;;;20.90;63.50;;;;;;5073478;28;20268;-61
2022/05/27 09:15:56;;;;;;;2.77;2.40;;;20.90;63.40;;;;;;5074487;28;20182;-62
2022/05/27 09:18:38;;;;;;;4.63;2.60;;;21.00;63.30;;;;;;5073605;28;20177;-62
2022/05/27 09:21:18;;;;;;;3.40;2.30;;;21.10;62.90;;;;;;5074474;28;20257;-62
2022/05/27 09:24:02;;;;;;;2.60;2.40;;;21.20;63.70;;;;;;5073411;28;20213;-62
2022/05/27 09:27:01;;;;;;;2.67;2.40;;;21.30;63.00;;;;;;5073794;28;20182;-62
2022/05/27 09:29:34;;;;;;;3.43;2.30;;;21.30;64.00;;;;;;5073391;28;20178;-61
2022/05/27 09:32:06;;;;;;;4.20;2.30;;;21.50;63.30;;;;;;5070397;28;20166;-62
2022/05/27 09:34:35;;;;;;;2.07;1.77;;;21.50;63.40;;;;;;5054324;28;20249;-62
2022/05/27 09:37:05;;;;;;;2.77;2.50;;;21.60;64.90;;;;;;5053101;28;20268;-61
2022/05/27 09:39:32;;;;;;;2.83;2.07;;;21.70;62.60;;;;;;5054298;28;20178;-62
2022/05/27 09:42:13;;;;;;;3.10;2.47;;;21.80;65.20;;;;;;5053519;28;20303;-63
2022/05/27 09:44:54;;;;;;;2.60;2.10;;;21.80;63.80;;;;;;5073507;28;20286;-63
2022/05/27 09:47:22;;;;;;;2.57;2.37;;;21.90;63.50;;;;;;5072749;28;20185;-63
2022/05/27 09:49:57;;;;;;;2.53;2.23;;;21.90;63.50;;;;;;5072717;28;20338;-63
2022/05/27 09:52:26;;;;;;;2.60;2.40;;;22.00;64.20;;;;;;5072672;28;20195;-63
2022/05/27 09:54:59;;;;;;;1.90;1.70;;;22.10;64.20;;;;;;5056732;28;20391;-60
2022/05/27 09:57:28;;;;;;;2.37;2.17;;;22.10;63.50;;;;;;5055579;28;20278;-62
2022/05/27 10:00:03;;;;;;;4.73;2.47;;;22.10;61.70;;;;;;5072732;28;20244;-62
2022/05/27 10:02:37;;;;;;;3.90;2.20;;;22.20;60.70;;;;;;5073814;28;20189;-61
2022/05/27 10:05:22;;;;;;;2.40;2.20;;;22.30;58.40;;;;;;5072276;28;20217;-61
2022/05/27 10:07:54;;;;;;;2.77;1.97;;;22.40;60.50;;;;;;5072883;28;20189;-62
2022/05/27 10:10:29;;;;;;;2.67;2.27;;;22.50;58.40;;;;;;5057017;28;20191;-63
2022/05/27 10:12:56;;;;;;;2.53;2.33;;;22.60;61.00;;;;;;5070363;28;20217;-61
2022/05/27 10:15:33;;;;;;;2.13;1.90;;;22.60;59.70;;;;;;5068188;28;20208;-61
2022/05/27 10:18:20;;;;;;;3.27;1.90;;;22.70;60.60;;;;;;5072794;28;20192;-63
2022/05/27 10:21:01;;;;;;;2.40;1.70;;;22.70;60.20;;;;;;5054911;28;20277;-62
2022/05/27 10:23:38;;;;;;;2.73;2.20;;;22.80;62.00;;;;;;5052565;28;20264;-62
2022/05/27 10:26:23;;;;;;;2.07;1.87;;;22.90;62.20;;;;;;5069117;28;20197;-62
2022/05/27 10:29:16;;;;;;;2.30;2.10;;;23.00;58.00;;;;;;5055053;28;20181;-63
2022/05/27 10:31:54;;;;;;;2.17;1.90;;;23.10;58.30;;;;;;5068683;28;20344;-62
2022/05/27 10:34:37;;;;;;;3.97;2.40;;;23.20;58.70;;;;;;5053615;28;20186;-62
2022/05/27 10:37:15;;;;;;;2.40;2.20;;;23.20;55.70;;;;;;5069556;28;20221;-62
2022/05/27 10:39:52;;;;;;;3.10;2.70;;;23.20;56.90;;;;;;5052869;28;20213;-63
2022/05/27 10:42:58;;;;;;;3.37;2.00;;;23.30;58.20;;;;;;5053158;28;20233;-62
2022/05/27 10:45:40;;;;;;;2.77;2.30;;;23.40;57.00;;;;;;5030867;28;20210;-62
2022/05/27 10:48:28;;;;;;;3.03;2.00;;;23.60;55.30;;;;;;5061184;28;20190;-63
2022/05/27 10:51:20;;;;;;;2.53;2.30;;;23.50;53.50;;;;;;5072348;28;20178;-63
2022/05/27 10:54:07;;;;;;;4.23;2.20;;;23.60;54.20;;;;;;5071994;28;20243;-63
2022/05/27 10:56:41;;;;;;;2.80;2.07;;;23.70;56.10;;;;;;5071975;28;20189;-63
2022/05/27 11:02:47;;;;;;;2.80;2.00;;;23.90;57.00;;;;;;5072216;28;20280;-62
2022/05/27 11:05:34;;;;;;;3.17;2.43;;;24.10;54.40;;;;;;5071361;28;20197;-62
2022/05/27 11:08:19;;;;;;;2.43;2.10;;;24.20;55.40;;;;;;5072521;28;20190;-63
2022/05/27 11:10:57;;;;;;;2.20;2.00;;;24.20;55.60;;;;;;5068452;28;20587;-63
2022/05/27 11:16:35;;;;;;;4.33;2.40;;;24.50;54.60;;;;;;5070701;28;20224;-62
2022/05/27 11:19:22;;;;;;;2.47;2.27;;;24.70;55.20;;;;;;5072829;28;20182;-62
2022/05/27 11:22:13;;;;;;;4.27;2.27;;;24.80;55.10;;;;;;5071045;28;20189;-62
2022/05/27 11:25:18;;;;;;;2.40;2.20;;;24.90;52.30;;;;;;5071724;28;20232;-62
2022/05/27 11:28:18;;;;;;;4.97;2.80;;;24.90;52.20;;;;;;5064652;28;20190;-62
2022/05/27 11:31:04;;;;;;;2.40;2.20;;;25.30;52.30;;;;;;5071078;28;20185;-62
2022/05/27 11:33:33;;;;;;;4.03;2.37;;;25.40;52.70;;;;;;5056790;28;20237;-62
2022/05/27 11:36:12;;;;;;;2.47;2.20;;;25.70;52.00;;;;;;5067791;28;20212;-62
2022/05/27 11:39:12;;;;;;;3.57;2.43;;;25.80;52.50;;;;;;5067394;28;20196;-62
2022/05/27 11:41:50;;;;;;;2.67;1.80;;;26.10;53.30;;;;;;5070871;28;20233;-62
2022/05/27 11:44:43;;;;;;;3.57;2.40;;;26.30;53.30;;;;;;5051003;28;20216;-62
2022/05/27 11:47:32;;;;;;;3.63;2.23;;;26.80;53.30;;;;;;5043895;28;20229;-63
2022/05/27 11:50:17;;;;;;;5.63;2.33;;;27.20;49.50;;;;;;5071783;28;20181;-62
2022/05/27 11:53:19;;;;;;;2.43;2.10;;;27.50;47.60;;;;;;5071835;28;20273;-62
2022/05/27 11:55:55;;;;;;;2.17;2.07;;;27.70;45.20;;;;;;5073102;28;20173;-62
2022/05/27 11:58:38;;;;;;;2.67;2.20;;;28.50;46.10;;;;;;5071702;28;20194;-63
2022/05/27 12:01:10;;;;;;;3.03;2.10;;;29.20;44.40;;;;;;5070952;28;20204;-62
2022/05/27 12:03:49;;;;;;;4.37;2.60;;;29.90;44.70;;;;;;5070913;28;20258;-62
2022/05/27 12:06:31;;;;;;;2.40;2.00;;;30.70;41.00;;;;;;5050439;28;20192;-63
2022/05/27 12:09:09;;;;;;;4.00;2.43;;;31.50;42.90;;;;;;5068367;28;20269;-63
2022/05/27 12:11:40;;;;;;;2.47;2.27;;;32.20;40.60;;;;;;5070362;28;20307;-63
2022/05/27 12:14:29;;;;;;;3.83;2.50;;;32.60;36.70;;;;;;5085884;28;20170;-62
2022/05/27 12:16:56;;;;;;;5.27;2.30;;;33.30;36.90;;;;;;5072231;28;20185;-62
2022/05/27 12:19:33;;;;;;;4.13;2.30;;;33.90;37.80;;;;;;5070738;28;20193;-62
2022/05/27 12:22:21;;;;;;;3.60;2.30;;;34.50;34.10;;;;;;5070196;28;20173;-62
2022/05/27 12:24:51;;;;;;;3.30;2.30;;;35.00;33.10;;;;;;5065863;28;20253;-62
2022/05/27 12:27:19;;;;;;;4.30;2.33;;;35.50;34.10;;;;;;5056625;28;20193;-62
2022/05/27 12:29:47;;;;;;;2.50;2.30;;;36.00;34.20;;;;;;5055233;28;20196;-62
2022/05/27 12:32:14;;;;;;;7.53;2.80;;;36.40;34.10;;;;;;5066763;28;20237;-61
2022/05/27 12:34:45;;;;;;;3.57;2.50;;;37.10;31.90;;;;;;5034292;28;20412;-62
2022/05/27 12:37:28;;;;;;;2.23;1.90;;;37.80;29.40;;;;;;5053670;28;20194;-62
2022/05/27 12:40:20;;;;;;;5.73;2.50;;;38.50;30.10;;;;;;5053540;28;20189;-63
2022/05/27 12:42:51;;;;;;;3.40;2.30;;;38.70;28.10;;;;;;5070309;28;20237;-62
2022/05/27 12:45:29;;;;;;;2.90;2.60;;;39.40;27.50;;;;;;5055025;28;20228;-62
2022/05/27 12:47:55;;;;;;;6.50;2.10;;;40.00;27.00;;;;;;5069861;28;20209;-62
2022/05/27 12:50:31;;;;;;;3.87;2.17;;;40.20;29.10;;;;;;5053604;28;20197;-62
2022/05/27 12:53:12;;;;;;;4.43;1.93;;;40.50;27.80;;;;;;5070161;28;20201;-62
2022/05/27 13:01:30;;;;;;;5.40;2.40;;;41.50;25.70;;;;;;5052776;28;20228;-62
2022/05/27 13:04:02;;;;;;;3.47;2.37;;;41.80;26.10;;;;;;5058489;28;20217;-62
2022/05/27 13:06:27;;;;;;;4.37;2.43;;;42.40;25.40;;;;;;5058270;28;20178;-62
2022/05/27 13:08:53;;;;;;;2.47;2.27;;;42.40;23.60;;;;;;5069616;28;20185;-62
2022/05/27 13:11:21;;;;;;;4.97;2.20;;;41.80;24.40;;;;;;5052986;28;20174;-62
2022/05/27 13:13:49;;;;;;;6.13;2.50;;;40.80;25.80;;;;;;5053877;28;20178;-63
2022/05/27 13:16:53;;;;;;;5.20;2.43;;;40.10;26.00;;;;;;5073160;28;20192;-62
2022/05/27 13:19:49;;;;;;;5.23;2.57;;;38.70;27.10;;;;;;5073433;28;20261;-62
2022/05/27 13:22:33;;;;;;;4.73;2.77;;;37.80;28.50;;;;;;5065759;28;20551;-62
2022/05/27 13:25:19;;;;;;;3.33;2.63;;;37.20;30.30;;;;;;5056931;28;20568;-63
2022/05/27 13:27:46;;;;;;;5.20;2.60;;;36.10;31.50;;;;;;5056326;28;20193;-62
2022/05/27 13:30:14;;;;;;;4.60;2.90;;;36.20;32.40;;;;;;5058068;28;20247;-62
2022/05/27 13:33:05;;;;;;;3.27;2.80;;;35.90;31.20;;;;;;5058003;28;20193;-63
2022/05/27 13:35:44;;;;;;;4.33;2.40;;;35.70;31.30;;;;;;5073979;28;20185;-63
2022/05/27 13:38:13;;;;;;;8.53;3.30;;;35.60;34.30;;;;;;5075608;28;20184;-63
2022/05/27 13:40:40;;;;;;;5.33;3.20;;;35.40;35.30;;;;;;5073789;28;20193;-63
2022/05/27 13:43:17;;;;;;;7.87;2.80;;;35.20;35.20;;;;;;5074003;28;20226;-63
2022/05/27 13:45:45;;;;;;;3.50;2.87;;;35.00;36.50;;;;;;5073767;28;20177;-62
2022/05/27 13:48:39;;;;;;;5.10;2.87;;;35.10;33.90;;;;;;5071538;28;20177;-62
2022/05/27 13:51:16;;;;;;;5.87;2.97;;;35.00;34.80;;;;;;5045443;28;20195;-62